Latest Weather Observations for Dwellingup

IDW60801

Issued at 8:02 pm WST Thursday 5 May 2016 (issued every 30 minutes, with the page automatically refreshed every 10 minutes)

About weather observations | Map of weather stations | Latest weather observations for WA | Other Formats
Station Details ID: 009538 Name: DWELLINGUP Lat: -32.71 Lon: 116.06 Height: 267.0 m
Data from the previous 72 hours. | See also: Recent months at Dwellingup
Date/Time
WST
Temp
°C
App
Temp
°C
Dew
Point
Rel
Hum
%
Delta-T
°C
Wind Press
QNH
hPa
Press
MSL
hPa
Rain
since 9 am
mm
Dir
 
Spd
km/h
Gust
km/h
Spd
kts
Gust
kts
05/08:00pm 13.8 12.3 10.4 80 1.8 SW 9 13 5 7 1015.1 1015.0 0.0
05/07:30pm 14.2 12.6 10.2 77 2.1 SSW 9 13 5 7 1015.2 1015.1 0.0
05/07:00pm 14.7 13.5 10.3 75 2.3 SW 7 11 4 6 1015.1 1015.0 0.0
05/06:30pm 15.0 14.0 11.0 77 2.2 SW 7 9 4 5 1014.9 1014.8 0.0
05/06:00pm 15.3 13.6 11.1 76 2.3 SSW 11 19 6 10 1014.7 1014.6 0.0
05/05:30pm 15.6 13.5 11.2 75 2.4 SSW 13 19 7 10 1014.6 1014.5 0.0
05/05:00pm 16.0 14.4 11.6 75 2.4 SW 11 19 6 10 1014.5 1014.4 0.0
05/04:30pm 16.4 16.2 11.8 74 2.5 S 4 9 2 5 1014.5 1014.4 0.0
05/04:00pm 16.9 17.3 11.4 70 3.0 CALM 0 6 0 3 1014.3 1014.2 0.0
05/03:30pm 17.0 16.7 11.3 69 3.1 SW 4 9 2 5 1014.2 1014.1 0.0
05/03:00pm 17.1 16.4 11.4 69 3.1 SW 6 9 3 5 1014.1 1013.9 0.0
05/02:30pm 16.9 16.9 11.2 69 3.1 S 2 7 1 4 1014.2 1014.1 0.0
05/02:00pm 16.9 17.2 11.0 68 3.2 CALM 0 0 0 0 1014.3 1014.2 0.0
05/01:30pm 16.8 17.2 11.1 69 3.1 CALM 0 4 0 2 1014.6 1014.5 0.0
05/01:00pm 16.4 16.7 10.9 70 3.0 CALM 0 4 0 2 1015.0 1014.9 0.0
05/12:30pm 16.8 16.8 11.3 70 3.0 ESE 2 7 1 4 1015.4 1015.3 0.0
05/12:00pm 16.2 15.2 10.9 71 2.9 SE 7 13 4 7 1015.9 1015.7 0.0
05/11:30am 16.4 16.3 10.7 69 3.1 SE 2 11 1 6 1016.2 1016.0 0.0
05/11:00am 16.7 15.9 11.6 72 2.8 SE 7 11 4 6 1016.4 1016.2 0.0
05/10:30am 16.3 15.5 11.7 74 2.5 SE 7 11 4 6 1016.7 1016.5 0.0
05/10:00am 15.0 13.5 11.8 81 1.7 SE 11 19 6 10 1016.8 1016.6 0.0
05/09:30am 15.2 14.7 12.7 85 1.4 SE 7 13 4 7 1016.7 1016.5 0.0
05/09:00am 14.0 13.6 12.9 93 0.6 SE 7 13 4 7 1016.6 1016.4 0.2
05/08:30am 12.5 11.9 11.6 94 0.5 SSE 6 11 3 6 1016.5 1016.3 0.2
05/08:00am 12.1 10.8 11.2 94 0.5 SSW 9 15 5 8 1016.4 1016.2 0.2
05/07:30am 11.1 8.7 10.0 93 0.6 SSW 13 19 7 10 1016.2 1016.0 0.2
05/07:00am 10.3 8.4 9.2 93 0.6 SW 9 13 5 7 1016.0 1015.8 0.2
05/06:30am 10.6 8.4 9.5 93 0.6 WSW 11 13 6 7 1015.8 1015.6 0.2
05/06:00am 10.4 8.2 9.3 93 0.6 SW 11 13 6 7 1015.8 1015.6 0.2
05/05:30am 10.8 8.7 9.7 93 0.6 SW 11 13 6 7 1015.4 1015.3 0.2
05/05:00am 11.3 9.3 10.2 93 0.6 SSW 11 15 6 8 1015.4 1015.3 0.2
05/04:30am 10.9 8.8 9.8 93 0.6 SW 11 17 6 9 1015.1 1015.0 0.2
05/04:00am 10.4 7.8 9.3 93 0.6 SW 13 20 7 11 1015.1 1015.0 0.2
05/03:30am 10.5 7.9 9.3 92 0.6 WSW 13 20 7 11 1015.2 1015.1 0.2
05/03:00am 9.9 7.5 8.7 92 0.6 WSW 11 17 6 9 1015.1 1015.0 0.2
05/02:30am 10.1 7.7 8.7 91 0.7 WSW 11 15 6 8 1015.1 1015.0 0.2
05/02:00am 10.4 8.1 9.0 91 0.7 WSW 11 17 6 9 1015.1 1015.0 0.2
05/01:30am 10.7 8.4 9.1 90 0.8 W 11 17 6 9 1015.1 1015.0 0.0
05/01:00am 11.5 9.0 9.8 89 0.9 WSW 13 17 7 9 1015.3 1015.2 0.0
05/12:30am 12.3 10.3 10.0 86 1.2 WSW 11 17 6 9 1015.4 1015.3 0.0
05/12:00am 13.6 11.7 10.6 82 1.6 W 11 17 6 9 1015.4 1015.3 0.0
 
Date/Time
WST
Temp
°C
App
Temp
°C
Dew
Point
Rel
Hum
%
Delta-T
°C
Wind Press
QNH
hPa
Press
MSL
hPa
Rain
since 9 am
mm
Dir
 
Spd
km/h
Gust
km/h
Spd
kts
Gust
kts
04/11:30pm 13.6 11.5 11.3 86 1.2 WSW 13 19 7 10 1015.7 1015.5 0.0
04/11:00pm 13.4 11.4 11.6 89 1.0 WSW 13 19 7 10 1015.7 1015.5 0.0
04/10:30pm 13.9 12.5 12.1 89 1.0 WSW 11 19 6 10 1015.8 1015.6 0.0
04/10:00pm 14.1 12.8 12.5 90 0.9 W 11 19 6 10 1015.7 1015.5 0.0
04/09:30pm 14.3 13.1 12.9 91 0.8 WSW 11 17 6 9 1015.7 1015.5 0.0
04/09:00pm 14.6 13.5 13.0 90 0.9 WSW 11 22 6 12 1015.7 1015.5 0.0
04/08:30pm 14.8 14.1 13.2 90 0.9 W 9 15 5 8 1015.7 1015.5 0.0
04/08:00pm 14.7 13.9 12.9 89 1.0 WSW 9 17 5 9 1015.7 1015.5 0.0
04/07:30pm 15.0 13.8 12.9 87 1.2 WSW 11 20 6 11 1015.5 1015.4 0.0
04/07:00pm 14.7 13.4 12.6 87 1.2 WNW 11 19 6 10 1015.3 1015.2 0.0
04/06:30pm 15.1 14.2 12.6 85 1.4 WNW 9 15 5 8 1014.9 1014.8 0.0
04/06:00pm 15.5 14.2 12.6 83 1.6 WNW 11 17 6 9 1014.7 1014.6 0.0
04/05:30pm 16.1 14.9 12.8 81 1.9 WNW 11 19 6 10 1014.6 1014.5 0.0
04/05:00pm 16.6 14.9 12.4 76 2.3 W 13 26 7 14 1014.7 1014.6 0.0
04/04:30pm 17.3 14.8 12.2 72 2.8 W 17 28 9 15 1014.7 1014.6 0.0
04/04:00pm 18.0 15.5 10.9 63 3.9 W 15 24 8 13 1014.7 1014.6 0.0
04/03:30pm 18.1 16.0 11.0 63 3.9 W 13 26 7 14 1014.8 1014.7 0.0
04/03:00pm 18.7 16.6 11.0 61 4.2 W 13 24 7 13 1014.9 1014.8 0.0
04/02:30pm 18.7 16.1 10.8 60 4.3 W 15 28 8 15 1014.9 1014.8 0.0
04/02:00pm 19.6 17.9 11.1 58 4.7 WNW 11 26 6 14 1014.9 1014.8 0.0
04/01:30pm 18.6 17.4 11.7 64 3.8 W 9 22 5 12 1015.3 1015.2 0.0
04/01:00pm 18.1 16.2 11.7 66 3.6 WNW 13 20 7 11 1015.8 1015.6 0.0
04/12:30pm 18.0 16.4 11.6 66 3.5 W 11 22 6 12 1016.1 1015.9 0.0
04/12:00pm 17.9 16.2 11.2 65 3.7 W 11 19 6 10 1016.6 1016.4 0.0
04/11:30am 17.7 16.3 10.8 64 3.8 W 9 20 5 11 1016.9 1016.7 0.0
04/11:00am 17.2 16.0 11.7 70 3.0 W 9 19 5 10 1017.5 1017.4 0.0
04/10:30am 16.7 14.6 11.2 70 3.0 W 13 19 7 10 1017.8 1017.7 0.0
04/10:00am 16.6 14.6 11.5 72 2.8 WSW 13 22 7 12 1018.0 1017.9 0.0
04/09:30am 15.6 15.1 13.8 89 1.0 W 9 15 5 8 1018.1 1018.0 0.0
04/09:00am 14.3 14.0 13.2 93 0.6 WNW 7 15 4 8 1018.2 1018.1 0.0
04/08:30am 13.4 12.9 12.5 94 0.5 WNW 7 11 4 6 1018.3 1018.2 0.0
04/08:00am 12.4 12.1 11.5 94 0.5 WNW 4 7 2 4 1018.2 1018.1 0.0
04/07:30am 11.7 10.6 10.8 94 0.5 W 7 11 4 6 1018.0 1017.9 0.0
04/07:00am 11.4 9.9 10.5 94 0.5 W 9 15 5 8 1017.8 1017.7 0.0
04/06:30am 11.1 9.9 10.2 94 0.5 WSW 7 11 4 6 1017.7 1017.6 0.0
04/06:00am 10.8 9.5 9.9 94 0.5 WSW 7 11 4 6 1017.8 1017.7 0.0
04/05:30am 10.5 9.1 9.6 94 0.5 WSW 7 11 4 6 1017.8 1017.7 0.0
04/05:00am 10.1 8.7 9.0 93 0.5 WNW 6 7 3 4 1017.9 1017.8 0.0
04/04:30am 9.8 8.2 8.7 93 0.5 W 7 9 4 5 1017.9 1017.8 0.0
04/04:00am 10.2 10.0 9.1 93 0.6 CALM 0 0 0 0 1017.9 1017.8 0.0
04/03:30am 10.7 10.6 9.6 93 0.6 CALM 0 0 0 0 1018.0 1017.9 0.0
04/03:00am 11.5 11.7 10.4 93 0.6 CALM 0 0 0 0 1018.1 1018.0 0.0
04/02:30am 11.6 11.8 10.5 93 0.6 CALM 0 0 0 0 1018.4 1018.3 0.0
04/02:00am 11.8 12.0 10.7 93 0.6 CALM 0 0 0 0 1018.7 1018.6 0.0
04/01:30am 11.3 11.4 10.2 93 0.6 CALM 0 0 0 0 1019.0 1018.9 0.0
04/01:00am 10.9 10.5 9.8 93 0.6 S 2 7 1 4 1019.2 1019.1 0.0
04/12:30am 10.9 9.2 9.8 93 0.6 SSW 9 13 5 7 1019.4 1019.3 0.0
04/12:00am 10.6 8.4 9.4 92 0.6 SW 11 17 6 9 1019.7 1019.5 0.0
 
Date/Time
WST
Temp
°C
App
Temp
°C
Dew
Point
Rel
Hum
%
Delta-T
°C
Wind Press
QNH
hPa
Press
MSL
hPa
Rain
since 9 am
mm
Dir
 
Spd
km/h
Gust
km/h
Spd
kts
Gust
kts
03/11:30pm 10.6 8.4 9.4 92 0.6 SW 11 15 6 8 1019.8 1019.6 0.0
03/11:00pm 10.9 8.8 9.7 92 0.6 WSW 11 13 6 7 1019.9 1019.7 0.0
03/10:30pm 11.2 9.5 10.0 92 0.6 WSW 9 13 5 7 1020.2 1020.0 0.0
03/10:00pm 11.6 10.0 10.3 92 0.7 WSW 9 13 5 7 1020.3 1020.1 0.0
03/09:30pm 11.9 11.0 10.5 91 0.7 W 6 9 3 5 1020.4 1020.2 0.0
03/09:00pm 11.6 10.6 10.2 91 0.7 W 6 11 3 6 1020.5 1020.3 0.0
03/08:30pm 11.8 9.8 10.2 90 0.8 SW 11 17 6 9 1020.4 1020.2 0.0
03/08:00pm 12.4 9.7 10.5 88 1.0 SW 15 19 8 10 1020.3 1020.1 0.0
03/07:30pm 13.0 10.8 10.9 87 1.1 WSW 13 19 7 10 1020.4 1020.2 0.0
03/07:00pm 13.4 11.2 10.8 84 1.4 WSW 13 19 7 10 1020.3 1020.1 0.0
03/06:30pm 14.3 12.1 10.9 80 1.8 WSW 13 20 7 11 1020.2 1020.0 0.0
03/06:00pm 15.2 12.7 11.0 76 2.3 WSW 15 19 8 10 1020.0 1019.8 0.0
03/05:30pm 16.1 14.4 11.3 73 2.6 WSW 11 17 6 9 1019.9 1019.7 0.0
03/05:00pm 16.8 15.2 11.7 72 2.8 WSW 11 19 6 10 1019.8 1019.6 0.0
03/04:30pm 17.3 15.7 11.6 69 3.1 WSW 11 13 6 7 1019.9 1019.7 0.0
03/04:00pm 18.9 17.6 11.2 61 4.2 WSW 9 17 5 9 1019.8 1019.6 0.0
03/03:30pm 18.7 17.9 11.8 64 3.9 SW 7 11 4 6 1019.9 1019.7 0.0
03/03:00pm 18.2 16.6 11.7 66 3.6 SW 11 15 6 8 1020.1 1019.9 0.0
03/02:30pm 18.0 17.0 11.1 64 3.8 SSW 7 13 4 7 1020.1 1019.9 0.0
03/02:00pm 18.0 17.2 11.1 64 3.8 SW 6 13 3 7 1020.3 1020.1 0.0
03/01:30pm 17.7 17.4 11.3 66 3.5 S 4 11 2 6 1020.6 1020.5 0.0
03/01:00pm 17.5 18.0 11.5 68 3.3 CALM 0 0 0 0 1020.8 1020.7 0.0
03/12:30pm 17.5 17.7 11.8 69 3.2 NW 2 9 1 5 1021.2 1021.1 0.0
03/12:00pm 17.2 16.4 11.0 67 3.4 E 6 11 3 6 1021.6 1021.5 0.0
03/11:30am 17.2 16.8 11.2 68 3.3 ENE 4 11 2 6 1021.8 1021.7 0.0
03/11:00am 16.2 15.6 11.8 75 2.4 SE 6 11 3 6 1022.3 1022.2 0.0
03/10:30am 15.9 15.4 11.9 77 2.2 SSE 6 9 3 5 1022.6 1022.5 0.0
03/10:00am 15.5 15.1 12.3 81 1.8 SSE 6 11 3 6 1022.7 1022.6 0.0
03/09:30am 14.8 14.3 12.8 88 1.1 SSE 7 9 4 5 1022.7 1022.6 0.0
03/09:00am 14.3 13.6 13.2 93 0.6 SSE 9 15 5 8 1022.6 1022.5 0.6
03/08:30am 13.3 12.3 12.4 94 0.5 S 9 15 5 8 1022.5 1022.4 0.6
03/08:00am 12.3 11.4 11.4 94 0.5 S 7 11 4 6 1022.3 1022.2 0.6
03/07:30am 11.7 10.3 10.8 94 0.5 SSE 9 11 5 6 1022.0 1021.9 0.6
03/07:00am 11.1 9.1 10.2 94 0.5 S 11 19 6 10 1021.8 1021.7 0.6
03/06:30am 10.4 8.2 9.5 94 0.5 SSW 11 17 6 9 1021.5 1021.4 0.6
03/06:00am 9.9 7.6 9.0 94 0.4 S 11 15 6 8 1021.4 1021.3 0.6
03/05:30am 9.5 6.3 8.6 94 0.4 S 15 20 8 11 1021.3 1021.2 0.6
03/05:00am 8.9 5.9 7.8 93 0.5 S 13 17 7 9 1021.2 1021.1 0.6
03/04:30am 8.9 5.9 7.8 93 0.5 S 13 19 7 10 1021.0 1020.9 0.6
03/04:00am 9.1 6.2 8.0 93 0.5 S 13 15 7 8 1020.9 1020.8 0.6
03/03:30am 9.3 6.4 8.2 93 0.5 S 13 15 7 8 1021.0 1020.9 0.6
03/03:00am 9.5 6.7 8.4 93 0.5 S 13 19 7 10 1021.1 1021.0 0.6
03/02:30am 9.8 7.0 8.7 93 0.5 S 13 17 7 9 1021.4 1021.3 0.6
03/02:00am 10.1 7.4 9.0 93 0.5 S 13 17 7 9 1021.5 1021.4 0.6
03/01:30am 10.4 7.8 9.2 92 0.6 S 13 17 7 9 1021.7 1021.6 0.6
03/01:00am 10.8 8.3 9.6 92 0.6 S 13 19 7 10 1021.6 1021.5 0.6
03/12:30am 11.5 9.1 10.2 92 0.7 S 13 19 7 10 1021.6 1021.5 0.6
03/12:00am 12.3 10.2 11.0 92 0.7 S 13 17 7 9 1021.6 1021.5 0.6
 
Date/Time
WST
Temp
°C
App
Temp
°C
Dew
Point
Rel
Hum
%
Delta-T
°C
Wind Press
QNH
hPa
Press
MSL
hPa
Rain
since 9 am
mm
Dir
 
Spd
km/h
Gust
km/h
Spd
kts
Gust
kts
02/11:30pm 12.0 10.5 10.7 92 0.7 S 9 15 5 8 1021.7 1021.6 0.6
02/11:00pm 12.4 11.1 11.1 92 0.7 S 9 15 5 8 1021.6 1021.5 0.6
02/10:30pm 11.7 9.7 10.3 91 0.7 SSW 11 17 6 9 1021.6 1021.5 0.6
02/10:00pm 11.8 10.3 10.4 91 0.7 WSW 9 13 5 7 1021.6 1021.5 0.6
02/09:30pm 12.7 11.4 11.1 90 0.9 SW 9 13 5 7 1021.6 1021.5 0.6
02/09:00pm 13.6 12.5 11.8 89 1.0 SW 9 13 5 7 1021.4 1021.3 0.6
02/08:30pm 14.4 13.4 12.4 88 1.1 SW 9 13 5 7 1021.4 1021.3 0.6

Other Formats:

Comma delimited format used in spreadsheet applications
http://www.bom.gov.au/fwo/IDW60801/IDW60801.94620.axf

JavaScript Object Notation format (JSON) in row-major order
http://www.bom.gov.au/fwo/IDW60801/IDW60801.94620.json